Time;durP1;ratioP1;P1;durP2;ratioP2;P2;SDS_P1;SDS_P2;PMS_P1;PMS_P2;Temp;Humidity;BMP_temperature;BMP_pressure;BME280_temperature;BME280_humidity;BME280_pressure;Samples;Min_cycle;Max_cycle;Signal;HPM_P1;HPM_P2
2022/01/20 00:01:46;;;;;;;18.45;2.55;;;6.70;99.90;;;;;;5057186;28;20021;-76
2022/01/20 00:04:21;;;;;;;20.27;2.30;;;6.60;99.90;;;;;;5057188;28;20033;-76
2022/01/20 00:28:11;;;;;;;16.27;2.60;;;6.50;99.90;;;;;;5056755;28;20044;-76
2022/01/20 00:30:48;;;;;;;17.20;2.30;;;6.50;99.90;;;;;;5056605;28;20036;-76
2022/01/20 00:33:20;;;;;;;22.30;2.63;;;6.60;99.90;;;;;;5056336;28;20466;-77
2022/01/20 00:38:24;;;;;;;20.50;2.92;;;6.60;99.90;;;;;;5056543;28;20111;-76
2022/01/20 00:40:51;;;;;;;23.88;2.70;;;6.60;99.90;;;;;;5056215;28;20037;-76
2022/01/20 00:43:17;;;;;;;17.90;2.92;;;6.60;99.90;;;;;;5056027;28;20039;-76
2022/01/20 00:45:43;;;;;;;22.27;2.70;;;6.60;99.90;;;;;;5056281;28;20029;-76
2022/01/20 00:48:08;;;;;;;22.45;3.17;;;6.60;99.90;;;;;;5056856;28;20017;-76
2022/01/20 00:50:35;;;;;;;26.05;2.97;;;6.70;99.90;;;;;;5038299;28;20029;-76
2022/01/20 00:53:01;;;;;;;25.95;3.20;;;6.70;99.90;;;;;;5055777;28;20032;-76
2022/01/20 00:55:27;;;;;;;21.50;2.90;;;6.70;99.90;;;;;;5055807;28;20112;-76
2022/01/20 00:57:53;;;;;;;26.13;3.22;;;6.70;99.90;;;;;;5055624;28;20131;-76
2022/01/20 01:00:18;;;;;;;22.30;2.72;;;6.70;99.90;;;;;;5054949;28;20059;-76
2022/01/20 01:02:44;;;;;;;20.77;2.85;;;6.70;99.90;;;;;;5056449;28;20359;-76
2022/01/20 01:05:11;;;;;;;27.85;3.22;;;6.70;99.90;;;;;;5055128;28;20036;-76
2022/01/20 01:07:51;;;;;;;21.05;2.95;;;6.70;99.90;;;;;;5056014;28;20432;-76
2022/01/20 01:10:28;;;;;;;19.42;2.92;;;6.70;99.90;;;;;;5055692;28;20078;-76
2022/01/20 01:13:04;;;;;;;19.85;2.60;;;6.70;99.90;;;;;;5055364;28;20032;-76
2022/01/20 01:15:36;;;;;;;18.70;2.90;;;6.70;99.90;;;;;;5055280;28;20098;-76
2022/01/20 01:23:26;;;;;;;9.88;1.38;;;6.70;99.90;;;;;;5057004;28;20492;-77
2022/01/20 01:25:55;;;;;;;5.88;1.23;;;6.60;99.90;;;;;;5055919;28;20051;-76
2022/01/20 01:28:22;;;;;;;6.28;1.20;;;6.50;99.90;;;;;;5056752;28;20500;-76
2022/01/20 01:33:30;;;;;;;7.22;1.00;;;6.40;99.90;;;;;;5055482;28;20032;-76
2022/01/20 01:35:58;;;;;;;10.88;1.20;;;6.40;99.90;;;;;;5054818;28;20352;-76
2022/01/20 01:38:37;;;;;;;6.35;0.98;;;6.30;99.90;;;;;;5028278;28;20022;-76
2022/01/20 01:41:13;;;;;;;12.55;1.48;;;6.30;99.90;;;;;;5017510;28;20030;-76
2022/01/20 01:43:43;;;;;;;9.90;1.58;;;6.30;99.90;;;;;;5036022;28;20036;-76
2022/01/20 01:46:11;;;;;;;13.90;1.70;;;6.30;99.90;;;;;;5035975;28;20029;-76
2022/01/20 01:48:41;;;;;;;16.25;1.88;;;6.20;99.90;;;;;;5035645;28;20034;-76
2022/01/20 01:51:07;;;;;;;13.27;1.92;;;6.30;99.90;;;;;;5036061;28;20052;-76
2022/01/20 01:53:33;;;;;;;20.88;2.63;;;6.30;99.90;;;;;;5035869;28;20022;-77
2022/01/20 01:55:58;;;;;;;28.05;2.80;;;6.30;99.90;;;;;;5035620;28;20051;-76
2022/01/20 01:58:24;;;;;;;21.27;2.90;;;6.40;99.90;;;;;;5035941;28;20030;-76
2022/01/20 02:00:50;;;;;;;27.27;3.60;;;6.40;99.90;;;;;;5035526;28;20054;-76
2022/01/20 02:03:16;;;;;;;24.25;3.25;;;6.40;99.90;;;;;;5035563;28;20022;-76
2022/01/20 02:06:34;;;;;;;30.85;3.47;;;6.40;99.90;;;;;;5035595;28;20139;-76
2022/01/20 02:08:43;;;;;;;24.02;3.05;;;6.50;99.90;;;;;;5032498;28;20042;-76
2022/01/20 02:19:23;;;;;;;27.75;3.83;;;6.50;99.90;;;;;;5039558;28;20091;-76
2022/01/20 02:21:52;;;;;;;27.40;3.72;;;6.50;99.90;;;;;;5039134;28;20656;-76
2022/01/20 02:24:19;;;;;;;27.38;3.65;;;6.50;99.90;;;;;;5039914;28;20602;-76
2022/01/20 02:26:45;;;;;;;34.88;3.55;;;6.50;99.90;;;;;;5039288;28;20116;-76
2022/01/20 02:29:12;;;;;;;26.35;3.75;;;6.50;99.90;;;;;;5039497;28;20111;-76
2022/01/20 02:31:37;;;;;;;30.90;4.07;;;6.50;99.90;;;;;;5039634;28;20116;-76
2022/01/20 02:34:03;;;;;;;32.95;3.60;;;6.50;99.90;;;;;;5038475;28;20118;-76
2022/01/20 02:36:30;;;;;;;35.03;3.67;;;6.50;99.90;;;;;;5039673;28;20026;-76
2022/01/20 02:39:02;;;;;;;33.63;3.70;;;6.50;99.90;;;;;;5039001;28;20109;-76
2022/01/20 02:46:57;;;;;;;22.80;3.43;;;6.60;99.90;;;;;;5040004;28;20402;-76
2022/01/20 02:49:22;;;;;;;35.10;4.28;;;6.50;99.90;;;;;;5038225;28;20025;-76
2022/01/20 02:51:54;;;;;;;26.00;3.45;;;6.60;99.90;;;;;;5038895;28;20334;-76
2022/01/20 02:54:21;;;;;;;30.60;4.10;;;6.60;99.90;;;;;;5038605;28;20034;-76
2022/01/20 02:56:47;;;;;;;26.10;4.22;;;6.60;99.90;;;;;;5038642;28;20037;-76
2022/01/20 02:59:13;;;;;;;27.17;3.85;;;6.60;99.90;;;;;;5038949;28;20136;-76
2022/01/20 03:01:39;;;;;;;30.27;3.60;;;6.60;99.90;;;;;;5038320;28;20084;-76
2022/01/20 03:04:05;;;;;;;30.65;3.58;;;6.50;99.90;;;;;;5038098;28;20057;-76
2022/01/20 03:06:31;;;;;;;27.42;3.28;;;6.50;99.90;;;;;;5037946;28;20364;-76
2022/01/20 03:08:56;;;;;;;29.23;3.70;;;6.40;99.90;;;;;;5037850;28;20083;-76
2022/01/20 03:11:22;;;;;;;31.50;4.32;;;6.40;99.90;;;;;;5037611;28;20060;-76
2022/01/20 03:13:47;;;;;;;27.42;3.88;;;6.40;99.90;;;;;;5038260;28;20025;-76
2022/01/20 03:16:13;;;;;;;23.83;3.53;;;6.40;99.90;;;;;;5038015;28;20025;-76
2022/01/20 03:18:38;;;;;;;34.22;3.55;;;6.40;99.90;;;;;;5038631;28;20105;-76
2022/01/20 03:21:04;;;;;;;25.65;3.92;;;6.40;99.90;;;;;;5037738;28;20033;-76
2022/01/20 03:23:30;;;;;;;25.50;3.70;;;6.40;99.90;;;;;;5037176;28;20109;-76
2022/01/20 03:25:55;;;;;;;24.52;3.50;;;6.40;99.90;;;;;;5038151;28;20085;-76
2022/01/20 03:28:22;;;;;;;20.30;2.72;;;6.50;99.90;;;;;;5038152;28;20069;-76
2022/01/20 03:30:47;;;;;;;26.77;3.75;;;6.50;99.90;;;;;;5038054;28;20037;-76
2022/01/20 03:33:13;;;;;;;21.80;3.00;;;6.40;99.90;;;;;;5038260;28;20049;-76
2022/01/20 03:35:41;;;;;;;18.83;3.08;;;6.40;99.90;;;;;;5037756;28;20029;-76
2022/01/20 03:38:07;;;;;;;27.95;3.42;;;6.40;99.90;;;;;;5038216;28;20022;-76
2022/01/20 03:40:32;;;;;;;31.95;3.45;;;6.40;99.90;;;;;;5037246;28;20018;-76
2022/01/20 03:42:58;;;;;;;29.55;3.40;;;6.40;99.90;;;;;;5037312;28;20029;-76
2022/01/20 03:45:26;;;;;;;19.58;2.92;;;6.30;99.90;;;;;;5036906;28;20048;-76
2022/01/20 03:47:55;;;;;;;13.50;2.22;;;6.30;99.90;;;;;;5037030;28;20026;-76
2022/01/20 03:53:06;;;;;;;11.38;1.73;;;6.30;99.90;;;;;;5038096;28;20490;-76
2022/01/20 03:55:31;;;;;;;12.70;1.50;;;6.20;99.90;;;;;;5038007;28;20025;-76
2022/01/20 03:57:57;;;;;;;10.55;1.55;;;6.10;99.90;;;;;;5037914;28;20493;-76
2022/01/20 04:00:23;;;;;;;6.50;1.58;;;6.00;99.90;;;;;;5037749;28;20045;-76
2022/01/20 04:02:48;;;;;;;5.50;1.10;;;6.00;99.90;;;;;;5037509;28;20038;-76
2022/01/20 04:05:14;;;;;;;8.45;1.40;;;6.00;99.90;;;;;;5037674;28;20021;-76
2022/01/20 04:07:39;;;;;;;12.48;1.50;;;5.90;99.90;;;;;;5037609;28;20021;-76
2022/01/20 04:10:05;;;;;;;10.27;1.60;;;5.90;99.90;;;;;;5037336;28;20051;-76
2022/01/20 04:12:31;;;;;;;15.68;2.05;;;5.90;99.90;;;;;;5036988;28;20036;-76
2022/01/20 04:14:56;;;;;;;16.77;1.60;;;5.90;99.90;;;;;;5036921;28;20033;-76
2022/01/20 04:17:26;;;;;;;14.32;1.80;;;5.90;99.90;;;;;;5037116;28;20440;-76
2022/01/20 04:19:52;;;;;;;19.75;2.22;;;5.90;99.90;;;;;;5036847;28;20081;-76
2022/01/20 04:22:17;;;;;;;14.98;1.80;;;5.90;99.90;;;;;;5036913;28;20074;-76
2022/01/20 04:24:43;;;;;;;14.45;1.90;;;5.90;99.90;;;;;;5037203;28;20022;-76
2022/01/20 04:27:08;;;;;;;17.85;2.28;;;5.90;99.90;;;;;;5036170;28;20014;-76
2022/01/20 04:29:34;;;;;;;9.27;1.52;;;6.00;99.90;;;;;;5037358;28;20025;-76
2022/01/20 04:32:00;;;;;;;19.75;1.80;;;5.90;99.90;;;;;;5036098;28;20025;-76
2022/01/20 04:34:25;;;;;;;12.45;2.22;;;5.90;99.90;;;;;;5035883;28;20036;-76
2022/01/20 04:36:53;;;;;;;14.05;2.22;;;5.80;99.90;;;;;;5036534;28;20379;-76
2022/01/20 04:39:23;;;;;;;12.60;2.35;;;5.70;99.90;;;;;;5036680;28;20018;-76
2022/01/20 04:41:50;;;;;;;11.80;1.60;;;5.70;99.90;;;;;;5036760;28;20041;-76
2022/01/20 04:44:33;;;;;;;15.07;1.90;;;5.70;99.90;;;;;;5036439;28;20057;-76
2022/01/20 04:47:49;;;;;;;16.60;2.55;;;5.70;99.90;;;;;;5037063;28;20449;-76
2022/01/20 04:57:58;;;;;;;20.88;3.70;;;5.60;99.90;;;;;;5036292;28;20112;-76
2022/01/20 05:00:23;;;;;;;24.48;3.63;;;5.50;99.90;;;;;;5034496;28;20050;-76
2022/01/20 05:02:49;;;;;;;25.38;3.33;;;5.30;99.90;;;;;;5036871;28;20076;-76
2022/01/20 05:05:14;;;;;;;27.40;3.53;;;5.30;99.90;;;;;;5037009;28;20021;-76
2022/01/20 05:07:40;;;;;;;20.40;2.95;;;5.30;99.90;;;;;;5036682;28;20042;-76
2022/01/20 05:10:08;;;;;;;26.98;3.08;;;5.20;99.90;;;;;;5036164;28;20108;-76
2022/01/20 05:13:11;;;;;;;25.45;3.45;;;5.10;99.90;;;;;;5037968;28;20432;-76
2022/01/20 05:15:26;;;;;;;26.40;3.67;;;5.10;99.90;;;;;;5031287;28;20040;-76
2022/01/20 05:17:53;;;;;;;39.55;4.07;;;5.10;99.90;;;;;;5035689;28;20101;-76
2022/01/20 05:20:19;;;;;;;28.27;3.60;;;5.10;99.90;;;;;;5037377;28;20013;-76
2022/01/20 05:22:44;;;;;;;30.63;4.75;;;5.10;99.90;;;;;;5034474;28;20502;-75
2022/01/20 05:25:10;;;;;;;38.58;4.80;;;5.00;99.90;;;;;;5042847;28;20017;-76
2022/01/20 05:27:36;;;;;;;25.75;3.85;;;5.10;99.90;;;;;;5038749;28;20026;-76
2022/01/20 05:30:03;;;;;;;34.90;4.00;;;5.10;99.90;;;;;;5028974;28;20519;-76
2022/01/20 05:32:28;;;;;;;34.95;4.32;;;5.10;99.90;;;;;;5049141;28;20105;-75
2022/01/20 05:34:54;;;;;;;36.28;5.65;;;5.10;99.90;;;;;;5037836;28;20029;-75
2022/01/20 05:37:19;;;;;;;42.40;5.03;;;5.10;99.90;;;;;;5039584;28;20079;-76
2022/01/20 05:39:45;;;;;;;35.33;4.88;;;5.20;99.90;;;;;;5049079;28;20084;-77
2022/01/20 05:42:10;;;;;;;35.05;5.15;;;5.20;99.90;;;;;;5040074;28;20053;-75
2022/01/20 05:44:36;;;;;;;35.55;4.30;;;5.30;99.90;;;;;;5032465;28;20124;-76
2022/01/20 05:47:09;;;;;;;29.88;3.78;;;5.30;99.90;;;;;;5035116;28;20487;-75
2022/01/20 05:49:35;;;;;;;31.05;4.03;;;5.30;99.90;;;;;;5037034;28;20113;-75
2022/01/20 05:52:01;;;;;;;29.48;3.40;;;5.40;99.90;;;;;;5044009;28;20491;-76
2022/01/20 05:54:27;;;;;;;19.33;3.05;;;5.40;99.90;;;;;;5051998;28;20085;-76
2022/01/20 05:56:53;;;;;;;22.60;3.80;;;5.60;99.90;;;;;;5053240;28;20432;-75
2022/01/20 05:59:19;;;;;;;17.25;2.20;;;5.60;99.90;;;;;;5056471;28;20049;-76
2022/01/20 06:01:53;;;;;;;12.73;2.35;;;5.60;99.90;;;;;;5056625;28;20068;-76
2022/01/20 06:04:19;;;;;;;15.65;2.38;;;5.60;99.90;;;;;;5044892;28;20223;-76
2022/01/20 06:06:45;;;;;;;16.10;2.58;;;5.60;99.90;;;;;;5037061;28;20032;-75
2022/01/20 06:09:11;;;;;;;19.35;2.47;;;5.70;99.90;;;;;;5036556;28;20087;-76
2022/01/20 06:11:37;;;;;;;17.73;2.78;;;5.70;99.90;;;;;;5037186;28;20041;-75
2022/01/20 06:14:04;;;;;;;24.45;3.58;;;5.60;99.90;;;;;;5035136;28;20029;-75
2022/01/20 06:16:30;;;;;;;24.25;3.45;;;5.60;99.90;;;;;;5037041;28;20529;-75
2022/01/20 06:18:56;;;;;;;22.02;3.58;;;5.50;99.90;;;;;;5018789;28;20124;-75
2022/01/20 06:21:22;;;;;;;20.85;3.70;;;5.50;99.90;;;;;;5043612;28;20104;-75
2022/01/20 06:23:48;;;;;;;17.13;2.58;;;5.40;99.90;;;;;;5039973;28;20033;-75
2022/01/20 06:26:14;;;;;;;28.70;3.05;;;5.40;99.90;;;;;;5039949;28;20482;-76
2022/01/20 06:28:42;;;;;;;21.40;2.78;;;5.40;99.90;;;;;;5039148;28;20056;-75
2022/01/20 06:31:09;;;;;;;9.93;1.73;;;5.40;99.90;;;;;;5040508;28;20025;-76
2022/01/20 06:33:35;;;;;;;18.73;2.40;;;5.40;99.90;;;;;;5028163;28;20028;-76
2022/01/20 06:36:01;;;;;;;13.80;2.42;;;5.40;99.90;;;;;;5034685;28;20606;-76
2022/01/20 06:38:27;;;;;;;12.77;1.70;;;5.30;99.90;;;;;;5035325;28;20112;-75
2022/01/20 06:40:53;;;;;;;15.40;2.00;;;5.30;99.90;;;;;;5034221;28;20362;-75
2022/01/20 06:43:20;;;;;;;15.30;2.58;;;5.40;99.90;;;;;;5034416;28;20029;-75
2022/01/20 06:45:46;;;;;;;19.83;2.53;;;5.30;99.90;;;;;;5041634;28;20028;-75
2022/01/20 06:48:11;;;;;;;11.93;1.52;;;5.30;99.90;;;;;;5047094;28;20467;-73
2022/01/20 06:50:37;;;;;;;14.00;1.92;;;5.30;99.90;;;;;;5038006;28;20025;-76
2022/01/20 06:53:03;;;;;;;6.63;1.48;;;5.30;99.90;;;;;;5035407;28;20033;-75
2022/01/20 06:55:28;;;;;;;15.05;1.98;;;5.30;99.90;;;;;;5033090;28;20029;-75
2022/01/20 06:57:54;;;;;;;18.80;2.70;;;5.30;99.90;;;;;;5032587;28;20478;-75
2022/01/20 07:00:23;;;;;;;16.73;2.33;;;5.30;99.90;;;;;;5035787;28;20076;-75
2022/01/20 07:02:50;;;;;;;14.85;2.22;;;5.20;99.90;;;;;;5021823;28;20120;-75
2022/01/20 07:05:19;;;;;;;16.50;2.20;;;5.20;99.90;;;;;;5032987;28;20017;-75
2022/01/20 07:07:45;;;;;;;18.88;2.22;;;5.20;99.90;;;;;;5050619;28;20029;-76
2022/01/20 07:10:12;;;;;;;15.18;2.65;;;5.20;99.90;;;;;;5038427;28;20018;-75
2022/01/20 07:12:39;;;;;;;16.40;1.88;;;5.30;99.90;;;;;;5033330;28;20029;-75
2022/01/20 07:15:06;;;;;;;54.03;3.88;;;5.30;99.90;;;;;;5033790;28;20017;-75
2022/01/20 07:17:31;;;;;;;9.18;1.45;;;5.30;99.90;;;;;;5025867;28;20041;-75
2022/01/20 07:19:57;;;;;;;17.80;2.00;;;5.30;99.90;;;;;;5021734;28;20025;-75
2022/01/20 07:22:22;;;;;;;13.13;2.17;;;5.30;99.90;;;;;;5039945;28;20041;-75
2022/01/20 07:24:48;;;;;;;14.10;1.65;;;5.30;99.90;;;;;;5035152;28;20018;-75
2022/01/20 07:27:15;;;;;;;7.90;1.40;;;5.30;99.90;;;;;;5036384;28;20536;-76
2022/01/20 07:29:41;;;;;;;11.70;1.65;;;5.30;99.90;;;;;;5031223;28;20155;-75
2022/01/20 07:32:07;;;;;;;19.80;2.10;;;5.30;99.90;;;;;;5032922;28;20112;-75
2022/01/20 07:34:33;;;;;;;20.95;2.60;;;5.30;99.90;;;;;;5024017;28;20081;-75
2022/01/20 07:37:00;;;;;;;17.25;1.67;;;5.30;99.90;;;;;;5029727;28;20033;-75
2022/01/20 07:39:25;;;;;;;14.02;2.38;;;5.30;99.90;;;;;;5024427;28;20021;-75
2022/01/20 07:41:51;;;;;;;15.95;2.15;;;5.30;99.90;;;;;;5019150;28;20105;-76
2022/01/20 07:44:17;;;;;;;13.80;2.00;;;5.30;99.90;;;;;;5029092;28;20514;-76
2022/01/20 07:46:44;;;;;;;16.42;2.08;;;5.30;99.90;;;;;;5046992;28;20035;-76
2022/01/20 07:49:09;;;;;;;17.55;2.50;;;5.20;99.90;;;;;;5032222;28;20044;-76
2022/01/20 07:51:35;;;;;;;14.85;2.45;;;5.20;99.90;;;;;;5032534;28;20030;-76
2022/01/20 07:54:00;;;;;;;11.57;1.65;;;5.20;99.90;;;;;;5032796;28;20029;-76
2022/01/20 07:56:26;;;;;;;12.48;1.98;;;5.10;99.90;;;;;;5032540;28;20060;-76
2022/01/20 07:58:52;;;;;;;21.80;2.78;;;5.10;99.90;;;;;;5036703;28;20053;-76
2022/01/20 08:01:18;;;;;;;19.40;2.92;;;5.10;99.90;;;;;;5036550;28;20035;-76
2022/01/20 08:03:43;;;;;;;12.75;2.20;;;5.10;99.90;;;;;;5051502;28;20257;-76
2022/01/20 08:06:09;;;;;;;22.55;2.53;;;5.00;99.90;;;;;;5045063;28;20021;-75
2022/01/20 08:08:34;;;;;;;11.15;2.42;;;5.00;99.90;;;;;;5044393;28;20525;-76
2022/01/20 08:11:00;;;;;;;14.73;2.78;;;5.00;99.90;;;;;;5033273;28;20086;-76
2022/01/20 08:13:25;;;;;;;21.77;3.00;;;5.00;99.90;;;;;;5043494;28;20017;-76
2022/01/20 08:15:51;;;;;;;22.55;3.10;;;5.00;99.90;;;;;;5042942;28;20013;-75
2022/01/20 08:18:16;;;;;;;21.65;3.20;;;5.00;99.90;;;;;;5048407;28;20481;-76
2022/01/20 08:20:42;;;;;;;20.50;3.33;;;5.00;99.90;;;;;;5042608;28;20097;-76
2022/01/20 08:23:08;;;;;;;24.38;3.47;;;5.10;99.90;;;;;;5043283;28;20018;-76
2022/01/20 08:25:34;;;;;;;17.70;2.80;;;5.10;99.90;;;;;;5043361;28;20032;-76
2022/01/20 08:28:01;;;;;;;20.13;2.50;;;5.10;99.90;;;;;;5035042;28;20082;-76
2022/01/20 08:30:26;;;;;;;24.90;4.63;;;5.20;99.90;;;;;;5042755;28;20071;-76
2022/01/20 08:32:52;;;;;;;26.25;3.83;;;5.20;99.90;;;;;;5037897;28;20079;-75
2022/01/20 08:35:20;;;;;;;17.33;2.67;;;5.30;99.90;;;;;;5046082;28;20025;-76
2022/01/20 08:37:46;;;;;;;17.40;2.88;;;5.30;99.90;;;;;;5039704;28;20032;-76
2022/01/20 08:40:18;;;;;;;23.25;2.72;;;5.30;99.90;;;;;;5041425;28;20017;-76
2022/01/20 08:42:46;;;;;;;20.33;2.80;;;5.40;99.90;;;;;;5039893;28;20060;-76
2022/01/20 08:45:14;;;;;;;18.55;2.50;;;5.40;99.90;;;;;;5034668;28;20080;-76
2022/01/20 08:47:42;;;;;;;27.00;6.88;;;5.40;99.90;;;;;;5028556;28;20048;-76
2022/01/20 08:50:09;;;;;;;19.17;2.92;;;5.40;99.90;;;;;;5031295;28;20018;-76
2022/01/20 08:52:34;;;;;;;40.65;10.48;;;5.40;99.90;;;;;;5023768;28;20045;-76
2022/01/20 08:55:01;;;;;;;16.15;3.33;;;5.50;99.90;;;;;;5028850;28;20499;-76
2022/01/20 08:57:27;;;;;;;19.60;3.38;;;5.50;99.90;;;;;;5031240;28;20040;-76
2022/01/20 08:59:54;;;;;;;13.95;2.17;;;5.50;99.90;;;;;;5030666;28;20415;-76
2022/01/20 09:02:20;;;;;;;24.52;2.83;;;5.60;99.90;;;;;;5031195;28;20029;-76
2022/01/20 09:04:46;;;;;;;27.25;3.40;;;5.60;99.90;;;;;;5031757;28;20060;-76
2022/01/20 09:07:11;;;;;;;21.27;3.08;;;5.60;99.90;;;;;;5033841;28;20052;-76
2022/01/20 09:09:45;;;;;;;12.60;2.00;;;5.60;99.90;;;;;;5040495;28;20467;-76
2022/01/20 09:17:25;;;;;;;24.00;2.33;;;5.60;99.90;;;;;;5014660;28;20040;-76
2022/01/20 09:19:50;;;;;;;30.92;3.13;;;5.60;99.90;;;;;;5037598;28;20469;-76
2022/01/20 09:22:16;;;;;;;17.83;3.08;;;5.70;99.90;;;;;;5030583;28;20039;-76
2022/01/20 09:24:44;;;;;;;17.50;2.55;;;5.70;99.90;;;;;;5049670;28;20019;-76
2022/01/20 09:27:11;;;;;;;19.77;2.33;;;5.80;99.90;;;;;;5047497;28;20095;-76
2022/01/20 09:29:36;;;;;;;17.92;2.60;;;5.80;99.90;;;;;;5037382;28;20030;-76
2022/01/20 09:32:05;;;;;;;16.35;2.65;;;5.80;99.90;;;;;;5040135;28;20043;-76
2022/01/20 09:34:30;;;;;;;23.70;2.58;;;5.80;99.90;;;;;;5033695;28;20039;-76
2022/01/20 09:36:56;;;;;;;15.02;2.85;;;5.70;99.90;;;;;;5018172;28;20029;-76
2022/01/20 09:39:22;;;;;;;22.13;3.35;;;5.70;99.90;;;;;;5027182;28;20018;-76
2022/01/20 09:41:47;;;;;;;16.63;2.47;;;5.70;99.90;;;;;;5028478;28;20045;-76
2022/01/20 09:44:14;;;;;;;22.60;3.30;;;5.70;99.90;;;;;;5012369;28;20057;-76
2022/01/20 09:46:39;;;;;;;16.00;3.35;;;5.70;99.90;;;;;;5029756;28;20033;-76
2022/01/20 09:49:05;;;;;;;17.67;3.22;;;5.90;99.90;;;;;;5020103;28;20025;-76
2022/01/20 09:51:31;;;;;;;21.52;4.20;;;6.00;99.90;;;;;;5029114;28;20109;-75
2022/01/20 09:53:56;;;;;;;24.35;3.95;;;6.00;99.90;;;;;;5022879;28;20029;-76
2022/01/20 09:56:23;;;;;;;17.38;3.08;;;6.00;99.90;;;;;;5022367;28;20034;-76
2022/01/20 09:58:48;;;;;;;18.35;2.83;;;5.90;99.90;;;;;;5025710;28;20525;-76
2022/01/20 10:01:15;;;;;;;23.20;3.35;;;5.80;99.90;;;;;;5030021;28;20029;-75
2022/01/20 10:03:46;;;;;;;21.85;3.08;;;5.60;99.90;;;;;;5030681;28;20398;-76
2022/01/20 10:06:11;;;;;;;29.27;6.85;;;5.50;99.90;;;;;;5030254;28;20029;-76
2022/01/20 10:08:37;;;;;;;19.55;3.05;;;5.40;99.90;;;;;;5043547;28;20032;-76
2022/01/20 10:11:09;;;;;;;24.70;4.07;;;5.30;99.90;;;;;;5034180;28;20022;-76
2022/01/20 10:13:40;;;;;;;20.75;3.80;;;5.30;99.90;;;;;;5030917;28;20374;-76
2022/01/20 10:16:16;;;;;;;24.48;2.75;;;5.30;99.90;;;;;;5030026;28;20014;-76
2022/01/20 10:18:54;;;;;;;18.15;2.78;;;5.30;99.90;;;;;;5030819;28;20065;-76
2022/01/20 10:21:48;;;;;;;24.48;2.90;;;5.30;99.90;;;;;;5030382;28;20025;-75
2022/01/20 10:24:16;;;;;;;19.40;2.63;;;5.40;99.90;;;;;;5000012;28;20041;-76
2022/01/20 10:26:42;;;;;;;16.33;2.47;;;5.40;99.90;;;;;;5030814;28;20383;-76
2022/01/20 10:29:10;;;;;;;18.38;3.08;;;5.50;99.90;;;;;;5030371;28;20021;-77
2022/01/20 10:31:49;;;;;;;22.25;2.83;;;5.60;99.90;;;;;;5009761;28;20065;-76
2022/01/20 10:34:21;;;;;;;17.70;2.55;;;5.70;99.90;;;;;;5038761;28;20024;-76
2022/01/20 10:36:51;;;;;;;17.73;2.13;;;5.80;99.90;;;;;;5050823;28;20029;-76
2022/01/20 10:39:17;;;;;;;12.68;2.33;;;5.90;99.90;;;;;;5040166;28;20037;-76
2022/01/20 10:41:42;;;;;;;17.77;3.90;;;6.00;99.90;;;;;;5042554;28;20108;-76
2022/01/20 10:44:14;;;;;;;16.42;2.10;;;6.10;99.90;;;;;;5048362;28;20092;-76
2022/01/20 10:47:16;;;;;;;17.23;2.30;;;6.10;99.90;;;;;;5043071;28;20041;-76
2022/01/20 10:49:42;;;;;;;24.85;6.03;;;6.20;99.90;;;;;;5027599;28;20083;-76
2022/01/20 10:52:11;;;;;;;17.77;2.60;;;6.30;99.90;;;;;;5041265;28;20039;-75
2022/01/20 10:54:43;;;;;;;17.60;3.85;;;6.40;99.90;;;;;;5046672;28;20483;-76
2022/01/20 10:57:11;;;;;;;17.60;2.58;;;6.40;99.90;;;;;;5035282;28;20387;-75
2022/01/20 10:59:58;;;;;;;14.20;2.33;;;6.40;99.90;;;;;;5035111;28;20068;-75
2022/01/20 11:02:27;;;;;;;17.13;2.72;;;6.40;99.90;;;;;;5040501;28;20041;-76
2022/01/20 11:04:54;;;;;;;16.23;2.05;;;6.40;99.90;;;;;;5043046;28;20032;-75
2022/01/20 11:07:21;;;;;;;14.20;2.08;;;6.30;99.90;;;;;;5037620;28;20045;-75
2022/01/20 11:09:51;;;;;;;15.95;2.58;;;6.30;99.90;;;;;;5023626;28;20084;-75
2022/01/20 11:12:18;;;;;;;18.00;2.08;;;6.30;99.90;;;;;;5025800;28;20034;-76
2022/01/20 11:14:45;;;;;;;13.10;2.20;;;6.30;99.90;;;;;;5033138;28;20067;-75
2022/01/20 11:17:19;;;;;;;18.13;2.33;;;6.30;99.90;;;;;;5017778;28;20026;-74
2022/01/20 11:19:46;;;;;;;18.90;2.25;;;6.30;99.90;;;;;;5013852;28;20034;-74
2022/01/20 11:22:13;;;;;;;15.77;2.35;;;6.40;99.90;;;;;;5014047;28;20103;-74
2022/01/20 11:24:41;;;;;;;20.85;3.25;;;6.40;99.90;;;;;;5013615;28;20172;-75
2022/01/20 11:27:09;;;;;;;42.97;10.93;;;6.40;99.90;;;;;;5018550;28;20037;-75
2022/01/20 11:29:44;;;;;;;18.35;2.40;;;6.40;99.90;;;;;;5032829;28;20429;-75
2022/01/20 11:32:17;;;;;;;24.35;3.25;;;6.40;99.90;;;;;;5033739;28;20026;-75
2022/01/20 11:35:04;;;;;;;18.23;2.65;;;6.40;99.90;;;;;;5031286;28;20506;-74
2022/01/20 11:37:36;;;;;;;14.82;2.00;;;6.30;99.90;;;;;;5019807;28;20487;-74
2022/01/20 11:40:07;;;;;;;18.65;2.53;;;6.30;99.90;;;;;;5033185;28;20489;-74
2022/01/20 11:42:33;;;;;;;17.25;2.08;;;6.30;99.90;;;;;;5026152;28;20026;-75
2022/01/20 11:44:59;;;;;;;13.32;2.42;;;6.30;99.90;;;;;;5019584;28;20025;-75
2022/01/20 11:47:32;;;;;;;17.27;3.03;;;6.30;99.90;;;;;;5028654;28;20057;-75
2022/01/20 11:49:59;;;;;;;20.42;3.75;;;6.40;99.90;;;;;;5027640;28;20048;-75
2022/01/20 11:52:26;;;;;;;14.10;2.55;;;6.40;99.90;;;;;;5014525;28;20109;-74
2022/01/20 11:54:52;;;;;;;17.30;2.50;;;6.50;99.90;;;;;;5013823;28;20026;-75
2022/01/20 11:57:30;;;;;;;17.98;3.30;;;6.60;99.90;;;;;;5014067;28;20116;-75
2022/01/20 12:00:02;;;;;;;21.17;2.80;;;6.60;99.90;;;;;;5035047;28;20123;-75
2022/01/20 12:02:37;;;;;;;22.50;2.90;;;6.60;99.90;;;;;;5030163;28;20033;-75
2022/01/20 12:05:15;;;;;;;15.38;2.28;;;6.60;99.90;;;;;;5029943;28;20029;-74
2022/01/20 12:07:41;;;;;;;11.65;1.88;;;6.60;99.90;;;;;;5037363;28;20048;-74
2022/01/20 12:10:07;;;;;;;15.77;2.10;;;6.70;99.90;;;;;;5038268;28;20029;-73
2022/01/20 12:12:33;;;;;;;21.20;2.45;;;6.70;99.90;;;;;;5033451;28;20032;-73
2022/01/20 12:15:09;;;;;;;15.00;2.15;;;6.80;99.90;;;;;;5028078;28;20088;-73
2022/01/20 12:17:36;;;;;;;17.13;2.60;;;6.70;99.90;;;;;;5035015;28;20024;-73
2022/01/20 12:20:03;;;;;;;11.15;1.73;;;6.60;99.90;;;;;;5036503;28;20024;-73
2022/01/20 12:22:28;;;;;;;14.60;1.73;;;6.50;99.90;;;;;;5042140;28;20045;-73
2022/01/20 12:24:57;;;;;;;12.30;1.70;;;6.50;99.90;;;;;;5035207;28;20037;-74
2022/01/20 12:27:24;;;;;;;11.57;1.70;;;6.40;99.90;;;;;;5033949;28;20026;-73
2022/01/20 12:29:51;;;;;;;19.65;2.00;;;6.40;99.90;;;;;;5037233;28;20030;-73
2022/01/20 12:32:18;;;;;;;8.35;1.80;;;6.40;99.90;;;;;;5035630;28;20532;-73
2022/01/20 12:34:55;;;;;;;12.43;1.85;;;6.40;99.90;;;;;;5035052;28;20108;-73
2022/01/20 12:37:21;;;;;;;19.52;1.80;;;6.50;99.90;;;;;;5037363;28;20454;-73
2022/01/20 12:39:46;;;;;;;16.08;2.05;;;6.50;99.90;;;;;;5014963;28;20049;-73
2022/01/20 12:42:12;;;;;;;12.73;2.17;;;6.60;99.90;;;;;;5028048;28;20033;-73
2022/01/20 12:44:46;;;;;;;17.38;2.20;;;6.70;99.90;;;;;;5030017;28;20375;-73
2022/01/20 12:47:12;;;;;;;17.80;2.17;;;6.70;99.90;;;;;;5031953;28;20034;-73
2022/01/20 12:49:38;;;;;;;12.68;1.80;;;6.70;99.90;;;;;;5032205;28;20073;-73
2022/01/20 12:52:06;;;;;;;18.23;3.15;;;6.80;99.90;;;;;;5031819;28;20057;-73
2022/01/20 12:54:34;;;;;;;10.15;1.67;;;6.80;99.90;;;;;;5034206;28;20023;-73
2022/01/20 12:57:08;;;;;;;18.88;2.88;;;6.80;99.90;;;;;;5039586;28;20075;-73
2022/01/20 12:59:40;;;;;;;19.45;3.60;;;6.70;99.90;;;;;;5029859;28;20045;-73
2022/01/20 13:02:12;;;;;;;20.65;2.90;;;6.70;99.90;;;;;;5031755;28;20652;-72
2022/01/20 13:04:39;;;;;;;12.43;2.38;;;6.60;99.90;;;;;;5032339;28;20103;-73
2022/01/20 13:07:09;;;;;;;17.23;2.30;;;6.60;99.90;;;;;;5040261;28;20035;-73
2022/01/20 13:09:41;;;;;;;17.30;2.42;;;6.50;99.90;;;;;;5033738;28;20073;-73
2022/01/20 13:12:09;;;;;;;12.10;3.00;;;6.50;99.90;;;;;;5028855;28;20022;-73
2022/01/20 13:14:46;;;;;;;17.30;2.05;;;6.50;99.90;;;;;;5032017;28;20552;-72
2022/01/20 13:17:19;;;;;;;14.90;1.80;;;6.40;99.90;;;;;;5033752;28;20425;-73
2022/01/20 13:19:47;;;;;;;10.48;1.50;;;6.30;99.90;;;;;;5036321;28;20064;-73
2022/01/20 13:22:37;;;;;;;13.25;1.95;;;6.20;99.90;;;;;;5038328;28;20021;-72
2022/01/20 13:25:04;;;;;;;10.35;1.50;;;6.20;99.90;;;;;;5032905;28;20032;-73
2022/01/20 13:27:30;;;;;;;9.85;1.83;;;6.20;99.90;;;;;;5036572;28;20029;-73
2022/01/20 13:29:55;;;;;;;9.10;1.60;;;6.30;99.90;;;;;;5032484;28;20300;-73
2022/01/20 13:32:21;;;;;;;12.88;2.40;;;6.50;99.90;;;;;;5033105;28;20346;-73
2022/01/20 13:34:58;;;;;;;11.85;1.75;;;6.60;99.90;;;;;;5039117;28;20071;-73
2022/01/20 13:37:24;;;;;;;11.18;1.85;;;6.50;99.90;;;;;;5030139;28;20080;-73
2022/01/20 13:39:55;;;;;;;10.05;1.33;;;6.30;99.90;;;;;;5033826;28;20035;-73
2022/01/20 13:45:12;;;;;;;8.68;1.25;;;5.60;99.90;;;;;;5031762;28;20102;-73
2022/01/20 13:47:58;;;;;;;14.95;1.70;;;5.40;99.90;;;;;;5037042;28;20379;-73
2022/01/20 13:50:25;;;;;;;13.70;1.50;;;5.40;99.90;;;;;;5038634;28;20023;-73
2022/01/20 13:52:52;;;;;;;12.70;1.75;;;5.40;99.90;;;;;;5036336;28;20067;-73
2022/01/20 13:55:27;;;;;;;11.15;1.65;;;5.50;99.90;;;;;;5033534;28;20075;-72
2022/01/20 13:57:54;;;;;;;14.23;1.80;;;5.60;99.90;;;;;;5036351;28;20048;-73